createdAt,value
2022-09-28T06:34:01.293Z,9.30
2022-09-28T06:36:31.465Z,9.30
2022-09-28T06:38:59.688Z,9.40
2022-09-28T06:41:28.197Z,9.40
2022-09-28T06:43:59.444Z,9.50
2022-09-28T06:46:27.567Z,9.60
2022-09-28T06:49:00.203Z,9.70
2022-09-28T06:51:28.836Z,9.80
2022-09-28T06:53:57.209Z,9.80
2022-09-28T06:56:29.377Z,10.00
2022-09-28T06:59:02.069Z,10.00
2022-09-28T07:01:32.938Z,10.10
2022-09-28T07:04:03.513Z,10.20
2022-09-28T07:06:32.199Z,10.30
2022-09-28T07:09:27.284Z,10.40
2022-09-28T07:11:55.300Z,10.50
2022-09-28T07:14:41.151Z,10.50
2022-09-28T07:17:14.683Z,10.60
2022-09-28T07:19:44.605Z,10.70
2022-09-28T07:22:18.384Z,10.80
2022-09-28T07:24:47.839Z,10.80
2022-09-28T07:27:18.071Z,10.90
2022-09-28T07:29:46.184Z,11.00
2022-09-28T07:32:15.189Z,11.00
2022-09-28T07:34:46.334Z,11.10
2022-09-28T07:37:14.808Z,11.00
2022-09-28T07:40:00.517Z,11.00
2022-09-28T07:42:30.300Z,10.90
2022-09-28T07:44:58.661Z,10.90
2022-09-28T07:47:33.852Z,11.00
2022-09-28T07:50:07.776Z,11.00
2022-09-28T07:52:36.260Z,11.20
2022-09-28T07:55:07.268Z,11.30
2022-09-28T07:57:36.427Z,11.50
2022-09-28T08:00:08.341Z,11.60
2022-09-28T08:02:36.636Z,11.70
2022-09-28T08:05:10.115Z,11.80
2022-09-28T08:07:38.668Z,11.90
2022-09-28T08:10:09.995Z,12.00
2022-09-28T08:12:40.766Z,12.20
2022-09-28T08:15:10.404Z,12.20
2022-09-28T08:17:39.015Z,12.30
2022-09-28T08:20:27.550Z,12.50
2022-09-28T08:22:56.915Z,12.60
2022-09-28T08:25:25.401Z,12.70
2022-09-28T08:27:53.428Z,12.80
2022-09-28T08:30:21.556Z,13.00
2022-09-28T08:32:49.800Z,13.10
2022-09-28T08:35:19.793Z,13.30
2022-09-28T08:37:55.471Z,13.50
2022-09-28T08:40:25.610Z,13.70
2022-09-28T08:42:57.983Z,13.80
2022-09-28T08:45:29.344Z,14.00
2022-09-28T08:48:21.460Z,14.20
2022-09-28T08:50:55.079Z,14.30
2022-09-28T08:53:34.314Z,14.40
2022-09-28T08:56:05.298Z,14.60
2022-09-28T08:58:37.871Z,14.80
2022-09-28T09:01:08.427Z,14.90
2022-09-28T09:03:39.716Z,15.00
2022-09-28T09:06:22.031Z,15.30
2022-09-28T09:09:06.191Z,15.30
2022-09-28T09:11:49.478Z,15.60
2022-09-28T09:14:41.113Z,15.70
2022-09-28T09:17:19.935Z,16.00
2022-09-28T09:19:55.729Z,16.10
2022-09-28T09:22:40.798Z,16.10
2022-09-28T09:25:19.524Z,15.80
2022-09-28T09:28:12.487Z,15.60
2022-09-28T09:30:50.757Z,15.30
2022-09-28T09:33:39.464Z,15.40
2022-09-28T09:36:20.279Z,15.70
2022-09-28T09:39:00.917Z,16.10
2022-09-28T09:41:43.042Z,16.40
2022-09-28T09:44:39.002Z,16.70
2022-09-28T09:47:11.026Z,17.10
2022-09-28T09:49:44.249Z,17.40
2022-09-28T09:52:19.972Z,17.50
2022-09-28T09:54:52.849Z,17.70
2022-09-28T09:57:25.464Z,17.90
2022-09-28T09:59:54.033Z,18.00
2022-09-28T10:02:25.811Z,18.30
2022-09-28T10:04:57.309Z,18.50
2022-09-28T10:07:30.958Z,18.70
2022-09-28T10:10:03.733Z,18.80
2022-09-28T10:12:32.548Z,18.90
2022-09-28T10:15:03.153Z,19.00
2022-09-28T10:17:33.121Z,18.90
2022-09-28T10:20:02.412Z,18.60
2022-09-28T10:22:32.893Z,18.50
2022-09-28T10:25:02.696Z,18.20
2022-09-28T10:27:33.360Z,17.90
2022-09-28T10:30:05.165Z,17.70
2022-09-28T10:32:40.171Z,17.60
2022-09-28T10:35:23.511Z,17.50
2022-09-28T10:37:55.379Z,17.90
2022-09-28T10:40:35.765Z,18.70
2022-09-28T10:43:06.640Z,19.30
2022-09-28T10:45:38.228Z,18.90
2022-09-28T10:48:15.056Z,18.20
2022-09-28T10:50:44.421Z,17.60
2022-09-28T10:53:17.771Z,17.30
2022-09-28T10:55:59.389Z,16.80
2022-09-28T10:58:30.897Z,16.40
2022-09-28T11:01:06.348Z,16.30
2022-09-28T11:03:35.223Z,16.20
2022-09-28T11:06:06.296Z,16.20
2022-09-28T11:08:38.922Z,16.10
2022-09-28T11:11:11.893Z,16.20
2022-09-28T11:13:45.901Z,16.30
2022-09-28T11:16:26.619Z,16.50
2022-09-28T11:18:54.715Z,16.70
2022-09-28T11:21:28.272Z,16.70
2022-09-28T11:23:59.015Z,16.70
2022-09-28T11:26:35.781Z,16.80
2022-09-28T11:29:04.533Z,17.50
2022-09-28T11:31:34.661Z,18.10
2022-09-28T11:34:06.715Z,18.00
2022-09-28T11:36:52.448Z,17.60
2022-09-28T11:39:29.045Z,17.40
2022-09-28T11:42:16.093Z,16.90
2022-09-28T11:44:46.635Z,16.50
2022-09-28T11:47:34.116Z,16.40
2022-09-28T11:50:07.157Z,16.50
2022-09-28T11:52:42.368Z,16.50
2022-09-28T11:55:17.503Z,16.70
2022-09-28T11:57:50.251Z,16.80
2022-09-28T12:00:22.522Z,16.90
2022-09-28T12:02:56.867Z,17.20
2022-09-28T12:05:29.667Z,17.60
2022-09-28T12:08:01.727Z,17.90
2022-09-28T12:10:37.199Z,17.80
2022-09-28T12:13:13.373Z,17.40
2022-09-28T12:16:17.206Z,17.10
2022-09-28T12:18:46.034Z,17.00
2022-09-28T12:21:29.168Z,17.00
2022-09-28T12:24:02.202Z,16.90
2022-09-28T12:26:38.011Z,16.80
2022-09-28T12:29:15.135Z,17.40
2022-09-28T12:31:57.941Z,17.50
2022-09-28T12:34:26.141Z,18.00
2022-09-28T12:37:09.741Z,18.50
2022-09-28T12:39:58.541Z,18.60
2022-09-28T12:42:43.125Z,19.20
2022-09-28T12:45:42.995Z,19.60
2022-09-28T12:48:41.923Z,20.60
2022-09-28T12:51:26.387Z,21.60
2022-09-28T12:54:10.005Z,21.80
2022-09-28T12:56:42.912Z,21.70
2022-09-28T12:59:23.985Z,21.30
2022-09-28T13:02:20.010Z,21.90
2022-09-28T13:05:02.424Z,21.90
2022-09-28T13:07:38.848Z,22.20
2022-09-28T13:10:18.421Z,22.60
2022-09-28T13:12:59.219Z,22.50
2022-09-28T13:15:42.739Z,22.30
2022-09-28T13:18:22.437Z,21.80
2022-09-28T13:21:06.066Z,20.80
2022-09-28T13:23:38.795Z,20.80
2022-09-28T13:26:18.490Z,21.60
2022-09-28T13:28:48.155Z,22.30
2022-09-28T13:31:22.055Z,23.00
2022-09-28T13:33:52.722Z,23.70
2022-09-28T13:36:47.836Z,24.00
2022-09-28T13:39:36.067Z,23.60
2022-09-28T13:42:05.312Z,24.10
2022-09-28T13:44:56.044Z,24.60
2022-09-28T13:47:51.380Z,25.20
2022-09-28T13:50:31.173Z,24.80
2022-09-28T13:53:08.242Z,24.30
2022-09-28T13:55:41.297Z,24.60
2022-09-28T13:58:18.042Z,24.50
2022-09-28T14:00:51.366Z,24.60
2022-09-28T14:03:30.190Z,23.40
2022-09-28T14:06:22.154Z,22.40
2022-09-28T14:09:10.247Z,21.10
2022-09-28T14:11:55.520Z,20.00
2022-09-28T14:14:49.381Z,19.10
2022-09-28T14:17:54.435Z,18.60
2022-09-28T14:20:28.622Z,18.40
2022-09-28T14:23:33.684Z,18.10
2022-09-28T14:26:21.104Z,18.10
2022-09-28T14:28:58.301Z,18.30
2022-09-28T14:31:29.346Z,19.10
2022-09-28T14:34:01.537Z,20.20
2022-09-28T14:36:52.931Z,21.40
2022-09-28T14:39:46.394Z,22.20
2022-09-28T14:42:16.785Z,22.00
2022-09-28T14:45:18.058Z,22.30
2022-09-28T14:48:15.424Z,22.60
2022-09-28T14:50:43.951Z,22.70
2022-09-28T14:53:14.779Z,23.00
2022-09-28T14:55:59.809Z,22.90
2022-09-28T14:58:30.211Z,22.90
2022-09-28T15:01:03.917Z,22.40
2022-09-28T15:03:34.531Z,22.50
2022-09-28T15:06:02.976Z,22.40
2022-09-28T15:08:38.896Z,22.00
2022-09-28T15:11:15.218Z,22.00
2022-09-28T15:13:44.365Z,22.00
2022-09-28T15:16:14.781Z,21.10
2022-09-28T15:19:15.780Z,20.90
2022-09-28T15:21:47.597Z,21.00
2022-09-28T15:24:34.069Z,20.80
2022-09-28T15:27:05.745Z,20.30
2022-09-28T15:29:34.363Z,20.40
2022-09-28T15:32:03.940Z,20.60
2022-09-28T15:34:51.109Z,20.50
2022-09-28T15:37:22.355Z,20.20
2022-09-28T15:39:51.762Z,19.90
2022-09-28T15:42:22.824Z,20.00
2022-09-28T15:45:32.049Z,19.50
2022-09-28T15:48:20.791Z,19.30
2022-09-28T15:51:10.357Z,19.10
2022-09-28T15:53:43.613Z,19.10
2022-09-28T15:56:12.385Z,18.80
2022-09-28T15:58:42.475Z,18.50
2022-09-28T16:01:36.689Z,18.30
2022-09-28T16:04:37.660Z,17.90
2022-09-28T16:07:28.165Z,17.70
2022-09-28T16:10:03.080Z,17.50
2022-09-28T16:12:43.559Z,17.20
2022-09-28T16:15:29.344Z,17.10
2022-09-28T16:18:01.535Z,17.00
2022-09-28T16:20:32.113Z,16.80
2022-09-28T16:23:06.135Z,16.50
2022-09-28T16:25:37.467Z,16.40
2022-09-28T16:28:06.752Z,16.50
2022-09-28T16:30:36.834Z,16.40
2022-09-28T16:33:07.085Z,16.40
2022-09-28T16:35:52.191Z,16.40
2022-09-28T16:44:57.608Z,16.30
2022-09-28T16:47:26.183Z,16.20
2022-09-28T16:49:54.440Z,16.20
2022-09-28T16:52:36.338Z,16.10
2022-09-28T16:58:06.349Z,16.10
2022-09-28T17:08:37.246Z,16.20
2022-09-28T17:11:24.636Z,16.30
2022-09-28T17:13:58.960Z,16.20
